createdAt,value
2017-08-07T00:00:31.752Z,7.47
2017-08-07T00:02:59.346Z,8.48
2017-08-07T00:05:26.976Z,9.27
2017-08-07T00:07:54.572Z,9.25
2017-08-07T00:10:23.141Z,10.07
2017-08-07T00:12:50.711Z,9.82
2017-08-07T00:15:18.348Z,10.35
2017-08-07T00:17:45.877Z,9.98
2017-08-07T00:20:14.225Z,10.18
2017-08-07T00:22:41.789Z,9.20
2017-08-07T00:25:09.369Z,9.20
2017-08-07T00:27:36.924Z,9.20
2017-08-07T00:30:05.050Z,9.65
2017-08-07T00:32:32.623Z,10.17
2017-08-07T00:35:00.274Z,9.30
2017-08-07T00:37:28.743Z,10.90
2017-08-07T00:39:57.012Z,13.07
2017-08-07T00:42:24.990Z,12.85
2017-08-07T00:44:54.074Z,11.35
2017-08-07T00:47:21.741Z,12.48
2017-08-07T00:49:50.491Z,13.25
2017-08-07T00:52:20.047Z,14.75
2017-08-07T00:54:47.650Z,13.20
2017-08-07T00:57:15.233Z,12.07
2017-08-07T00:59:42.922Z,13.23
2017-08-07T01:02:10.537Z,13.57
2017-08-07T01:04:38.652Z,14.37
2017-08-07T01:07:06.251Z,15.05
2017-08-07T01:09:33.848Z,14.38
2017-08-07T01:12:08.089Z,13.73
2017-08-07T01:14:35.772Z,13.48
2017-08-07T01:17:04.380Z,13.85
2017-08-07T01:19:32.031Z,15.80
2017-08-07T01:21:59.605Z,15.60
2017-08-07T01:24:27.188Z,15.25
2017-08-07T01:26:55.514Z,15.05
2017-08-07T01:29:23.121Z,14.13
2017-08-07T01:31:50.672Z,14.00
2017-08-07T01:34:19.002Z,15.90
2017-08-07T01:36:48.351Z,14.30
2017-08-07T01:39:16.075Z,12.57
2017-08-07T01:41:43.676Z,14.50
2017-08-07T01:44:11.839Z,12.88
2017-08-07T01:46:39.389Z,13.57
2017-08-07T01:49:06.969Z,13.02
2017-08-07T01:51:34.525Z,13.73
2017-08-07T01:54:02.106Z,15.32
2017-08-07T01:56:29.717Z,14.95
2017-08-07T01:58:58.137Z,14.70
2017-08-07T02:01:26.490Z,16.05
2017-08-07T02:03:54.932Z,15.05
2017-08-07T02:06:24.440Z,15.02
2017-08-07T02:08:51.994Z,15.88
2017-08-07T02:11:19.578Z,15.38
2017-08-07T02:13:47.142Z,15.57
2017-08-07T02:16:14.776Z,17.83
2017-08-07T02:18:43.077Z,17.17
2017-08-07T02:21:12.669Z,16.50
2017-08-07T02:23:40.755Z,16.15
2017-08-07T02:26:09.394Z,17.80
2017-08-07T02:28:36.989Z,17.20
2017-08-07T02:31:04.599Z,16.73
2017-08-07T02:33:32.160Z,18.62
2017-08-07T02:35:59.745Z,18.00
2017-08-07T02:38:27.359Z,20.55
2017-08-07T02:40:55.714Z,15.23
2017-08-07T02:43:23.318Z,16.37
2017-08-07T02:45:51.643Z,15.63
2017-08-07T02:48:19.487Z,15.27
2017-08-07T02:50:50.045Z,14.60
2017-08-07T02:53:17.667Z,16.37
2017-08-07T02:55:45.239Z,14.15
2017-08-07T02:58:12.836Z,14.85
2017-08-07T03:00:40.480Z,14.50
2017-08-07T03:03:08.149Z,14.13
2017-08-07T03:05:35.822Z,13.77
2017-08-07T03:08:03.441Z,13.73
2017-08-07T03:10:32.616Z,13.13
2017-08-07T03:13:00.214Z,14.55
2017-08-07T03:15:27.774Z,14.52
2017-08-07T03:17:55.330Z,13.55
2017-08-07T03:20:22.926Z,11.90
2017-08-07T03:22:51.264Z,15.00
2017-08-07T03:25:18.888Z,14.02
2017-08-07T03:27:46.508Z,13.15
2017-08-07T03:30:14.092Z,12.18
2017-08-07T03:32:42.433Z,14.13
2017-08-07T03:35:10.023Z,15.35
2017-08-07T03:37:39.186Z,14.95
2017-08-07T03:40:06.742Z,14.13
2017-08-07T03:42:34.353Z,12.98
2017-08-07T03:45:01.911Z,13.70
2017-08-07T03:47:30.033Z,14.10
2017-08-07T03:49:57.595Z,13.20
2017-08-07T03:52:25.177Z,13.50
2017-08-07T03:54:52.734Z,13.00
2017-08-07T03:57:21.051Z,14.40
2017-08-07T03:59:48.632Z,13.95
2017-08-07T04:02:16.209Z,14.75
2017-08-07T04:04:43.785Z,13.18
2017-08-07T04:07:11.354Z,13.25
2017-08-07T04:09:38.923Z,13.48
2017-08-07T04:12:07.250Z,12.95
2017-08-07T04:14:34.826Z,14.87
2017-08-07T04:17:02.384Z,17.87
2017-08-07T04:19:30.490Z,12.90
2017-08-07T04:21:58.080Z,12.98
2017-08-07T04:24:26.435Z,14.02
2017-08-07T04:26:54.004Z,13.43
2017-08-07T04:29:21.566Z,15.52
2017-08-07T04:31:49.104Z,15.00
2017-08-07T04:34:16.728Z,13.45
2017-08-07T04:36:45.065Z,13.18
2017-08-07T04:39:12.652Z,14.70
2017-08-07T04:41:40.521Z,12.60
2017-08-07T04:44:08.101Z,14.38
2017-08-07T04:46:35.641Z,13.65
2017-08-07T04:49:03.197Z,13.62
2017-08-07T04:51:30.777Z,15.05
2017-08-07T04:53:58.341Z,15.52
2017-08-07T04:56:25.938Z,15.13
2017-08-07T04:58:54.254Z,16.12
2017-08-07T05:01:21.833Z,15.10
2017-08-07T05:03:49.374Z,17.70
2017-08-07T05:06:16.973Z,16.67
2017-08-07T05:08:44.537Z,17.58
2017-08-07T05:11:12.112Z,17.08
2017-08-07T05:13:39.697Z,16.12
2017-08-07T05:16:07.299Z,16.92
2017-08-07T05:18:34.877Z,14.93
2017-08-07T05:21:02.425Z,15.87
2017-08-07T05:23:30.042Z,14.38
2017-08-07T05:25:57.613Z,15.23
2017-08-07T05:28:25.185Z,13.13
2017-08-07T05:30:52.728Z,13.53
2017-08-07T05:33:20.289Z,15.87
2017-08-07T05:35:47.852Z,14.13
2017-08-07T05:38:15.420Z,13.93
2017-08-07T05:40:43.307Z,14.40
2017-08-07T05:43:10.890Z,15.47
2017-08-07T05:45:38.455Z,14.40
2017-08-07T05:48:06.034Z,15.23
2017-08-07T05:50:34.360Z,15.40
2017-08-07T05:53:01.895Z,15.33
2017-08-07T05:55:29.475Z,16.00
2017-08-07T05:57:57.017Z,16.70
2017-08-07T06:00:25.391Z,16.27
2017-08-07T06:02:53.708Z,15.90
2017-08-07T06:05:21.292Z,16.20
2017-08-07T06:07:49.586Z,14.60
2017-08-07T06:10:17.153Z,14.83
2017-08-07T06:12:44.707Z,14.50
2017-08-07T06:15:12.292Z,15.83
2017-08-07T06:17:39.843Z,14.30
2017-08-07T06:20:07.420Z,15.43
2017-08-07T06:22:35.022Z,12.70
2017-08-07T06:25:02.595Z,14.47
2017-08-07T06:27:30.225Z,14.27
2017-08-07T06:29:57.771Z,13.90
2017-08-07T06:32:25.357Z,12.30
2017-08-07T06:34:52.957Z,12.90
2017-08-07T06:37:20.553Z,13.50
2017-08-07T06:39:48.131Z,13.20
2017-08-07T06:42:15.716Z,13.13
2017-08-07T06:44:43.266Z,11.40
2017-08-07T06:47:10.827Z,11.30
2017-08-07T06:52:15.213Z,11.50
2017-08-07T06:54:42.769Z,10.33
2017-08-07T06:57:10.298Z,10.40
2017-08-07T06:59:37.924Z,12.03
2017-08-07T07:02:05.490Z,11.47
2017-08-07T07:04:33.080Z,11.03
2017-08-07T07:07:00.640Z,10.77
2017-08-07T07:09:28.232Z,13.23
2017-08-07T07:11:55.842Z,11.00
2017-08-07T07:14:24.184Z,11.03
2017-08-07T07:16:51.726Z,10.03
2017-08-07T07:19:19.322Z,11.53
2017-08-07T07:21:46.876Z,10.00
2017-08-07T07:24:14.439Z,11.50
2017-08-07T07:26:42.528Z,9.50
2017-08-07T07:29:10.153Z,9.03
2017-08-07T07:31:37.681Z,8.20
2017-08-07T07:34:06.002Z,11.17
2017-08-07T07:36:33.589Z,8.00
2017-08-07T07:39:01.129Z,7.67
2017-08-07T07:41:28.690Z,7.43
2017-08-07T07:43:56.237Z,7.60
2017-08-07T07:46:24.584Z,6.63
2017-08-07T07:48:52.117Z,6.17
2017-08-07T07:51:19.762Z,6.80
2017-08-07T07:53:47.347Z,6.27
2017-08-07T07:56:14.905Z,6.63
2017-08-07T07:58:42.540Z,6.90
2017-08-07T08:01:10.878Z,7.13
2017-08-07T08:03:38.427Z,6.20
2017-08-07T08:06:06.001Z,6.27
2017-08-07T08:08:33.534Z,6.00
2017-08-07T08:11:01.097Z,6.73
2017-08-07T08:13:28.651Z,7.30
2017-08-07T08:15:56.173Z,6.50
2017-08-07T08:18:23.731Z,6.77
2017-08-07T08:20:51.273Z,8.27
2017-08-07T08:23:18.844Z,5.67
2017-08-07T08:25:46.403Z,5.80
2017-08-07T08:28:13.965Z,6.27
2017-08-07T08:30:41.522Z,5.60
2017-08-07T08:33:09.106Z,5.80
2017-08-07T08:35:36.637Z,5.63
2017-08-07T08:38:04.197Z,7.10
2017-08-07T08:40:32.554Z,5.70
2017-08-07T08:43:00.948Z,6.07
2017-08-07T08:45:29.265Z,6.20
2017-08-07T08:47:56.811Z,6.30
2017-08-07T08:50:25.149Z,6.30
2017-08-07T08:52:52.693Z,5.50
2017-08-07T08:55:20.270Z,5.00
2017-08-07T08:57:47.797Z,5.23
2017-08-07T09:00:16.158Z,5.33
2017-08-07T09:02:44.462Z,5.30
2017-08-07T09:05:12.013Z,4.77
2017-08-07T09:07:40.322Z,4.40
2017-08-07T09:10:07.896Z,4.90
2017-08-07T09:12:35.463Z,4.70
2017-08-07T09:15:03.041Z,4.50
2017-08-07T09:17:30.573Z,4.50
2017-08-07T09:19:58.128Z,3.90
2017-08-07T09:22:25.733Z,3.70
2017-08-07T09:24:53.289Z,3.50
2017-08-07T09:27:21.666Z,3.90
2017-08-07T09:29:49.217Z,4.27
2017-08-07T09:32:16.768Z,3.67
2017-08-07T09:34:44.330Z,3.30
2017-08-07T09:37:12.725Z,3.03
2017-08-07T09:39:41.032Z,2.90
2017-08-07T09:42:08.590Z,3.13
2017-08-07T09:44:36.150Z,3.73
2017-08-07T09:47:04.610Z,3.10
2017-08-07T09:49:32.904Z,3.70
2017-08-07T09:52:00.457Z,3.83
2017-08-07T09:54:28.798Z,3.83
2017-08-07T09:56:56.336Z,4.30
2017-08-07T09:59:24.013Z,4.03
2017-08-07T10:01:51.582Z,3.93
2017-08-07T10:04:21.034Z,3.60
2017-08-07T10:06:48.576Z,4.63
2017-08-07T10:09:16.487Z,3.33
2017-08-07T10:11:44.826Z,3.60
2017-08-07T10:14:12.376Z,3.90
2017-08-07T10:16:40.044Z,4.63
2017-08-07T10:19:08.595Z,4.47
2017-08-07T10:21:36.186Z,4.00
2017-08-07T10:24:03.748Z,3.37
2017-08-07T10:26:31.319Z,3.93
2017-08-07T10:28:58.867Z,3.70
2017-08-07T10:31:26.431Z,3.57
2017-08-07T10:33:54.011Z,4.00
2017-08-07T10:36:21.581Z,3.30
2017-08-07T10:38:49.165Z,3.60
2017-08-07T10:41:16.714Z,3.70
2017-08-07T10:43:44.293Z,4.03
2017-08-07T10:46:11.832Z,3.30
2017-08-07T10:48:39.470Z,4.50
2017-08-07T10:51:07.787Z,3.00
2017-08-07T10:53:35.883Z,2.37
2017-08-07T10:56:03.417Z,3.20
2017-08-07T10:58:30.978Z,5.60
2017-08-07T11:00:58.544Z,3.20
2017-08-07T11:03:26.149Z,6.47
2017-08-07T11:05:53.714Z,3.43
2017-08-07T11:08:21.324Z,3.00
2017-08-07T11:10:48.858Z,2.83
2017-08-07T11:13:16.954Z,2.90
2017-08-07T11:15:44.504Z,3.57
2017-08-07T11:18:12.037Z,3.50
2017-08-07T11:20:39.612Z,3.03
2017-08-07T11:23:07.184Z,3.17
2017-08-07T11:25:34.745Z,4.00
2017-08-07T11:28:02.311Z,2.60
2017-08-07T11:30:33.944Z,2.47
2017-08-07T11:33:01.819Z,2.77
2017-08-07T11:35:29.523Z,2.30
2017-08-07T11:37:57.083Z,4.40
2017-08-07T11:40:25.461Z,3.10
2017-08-07T11:42:53.002Z,2.67
2017-08-07T11:45:20.580Z,2.63
2017-08-07T11:47:48.160Z,2.70
2017-08-07T11:50:15.709Z,2.50
2017-08-07T11:52:43.290Z,3.83
2017-08-07T11:55:11.002Z,3.07
2017-08-07T11:57:38.550Z,4.70
2017-08-07T12:00:06.836Z,2.30
2017-08-07T12:02:35.222Z,2.00
2017-08-07T12:05:03.523Z,3.00
2017-08-07T12:07:31.081Z,3.90
2017-08-07T12:09:58.614Z,2.80
2017-08-07T12:12:26.170Z,4.57
2017-08-07T12:14:53.720Z,2.53
2017-08-07T12:17:21.441Z,2.40
2017-08-07T12:19:50.538Z,3.37
2017-08-07T12:22:18.082Z,6.73
2017-08-07T12:24:46.480Z,2.67
2017-08-07T12:27:14.826Z,3.70
2017-08-07T12:29:42.409Z,2.60
2017-08-07T12:32:10.727Z,3.00
2017-08-07T12:34:38.933Z,3.00
2017-08-07T12:37:06.458Z,6.67
2017-08-07T12:39:34.028Z,3.17
2017-08-07T12:42:01.562Z,2.63
2017-08-07T12:44:29.911Z,2.57
2017-08-07T12:46:58.182Z,2.40
2017-08-07T12:49:25.749Z,2.60
2017-08-07T12:51:53.312Z,2.23
2017-08-07T12:54:20.895Z,3.60
2017-08-07T12:56:48.523Z,2.60
2017-08-07T12:59:16.075Z,2.60
2017-08-07T13:01:45.329Z,2.70
2017-08-07T13:04:12.872Z,2.70
2017-08-07T13:06:40.447Z,2.57
2017-08-07T13:09:09.242Z,2.50
2017-08-07T13:11:36.906Z,2.60
2017-08-07T13:14:04.440Z,4.70
2017-08-07T13:16:32.027Z,2.57
2017-08-07T13:18:59.568Z,2.40
2017-08-07T13:21:27.131Z,2.53
2017-08-07T13:23:54.673Z,3.80
2017-08-07T13:26:23.033Z,2.77
2017-08-07T13:28:50.569Z,2.90
2017-08-07T13:31:18.131Z,2.50
2017-08-07T13:33:45.726Z,3.40
2017-08-07T13:36:13.274Z,4.80
2017-08-07T13:38:40.845Z,2.83
2017-08-07T13:41:08.386Z,2.63
2017-08-07T13:43:35.945Z,2.90
2017-08-07T13:46:03.489Z,3.30
2017-08-07T13:48:31.911Z,2.40
2017-08-07T13:50:59.443Z,2.50
2017-08-07T13:53:27.049Z,2.67
2017-08-07T13:55:54.615Z,2.70
2017-08-07T13:58:22.180Z,3.10
2017-08-07T14:00:49.797Z,2.60
2017-08-07T14:03:18.118Z,2.70
2017-08-07T14:05:45.697Z,3.57
2017-08-07T14:08:13.227Z,3.43
2017-08-07T14:10:40.772Z,2.80
2017-08-07T14:13:09.076Z,3.23
2017-08-07T14:15:36.630Z,2.93
2017-08-07T14:18:04.197Z,2.63
2017-08-07T14:20:31.759Z,2.70
2017-08-07T14:22:59.301Z,4.80
2017-08-07T14:25:27.632Z,3.00
2017-08-07T14:27:55.177Z,3.10
2017-08-07T14:30:26.641Z,8.40
2017-08-07T14:32:56.170Z,3.13
2017-08-07T14:35:23.706Z,3.10
2017-08-07T14:37:51.266Z,3.20
2017-08-07T14:40:18.809Z,3.00
2017-08-07T14:42:47.149Z,2.63
2017-08-07T14:45:14.809Z,2.60
2017-08-07T14:47:42.424Z,3.40
2017-08-07T14:50:10.743Z,2.70
2017-08-07T14:52:38.312Z,2.27
2017-08-07T14:55:05.875Z,5.43
2017-08-07T14:57:33.441Z,3.50
2017-08-07T15:00:00.981Z,4.43
2017-08-07T15:02:28.574Z,3.30
2017-08-07T15:04:56.163Z,2.97
2017-08-07T15:07:23.730Z,7.63
2017-08-07T15:09:51.289Z,2.80
2017-08-07T15:12:18.897Z,2.87
2017-08-07T15:14:47.216Z,2.53
2017-08-07T15:17:14.763Z,3.00
2017-08-07T15:19:42.333Z,3.07
2017-08-07T15:22:09.884Z,3.43
2017-08-07T15:24:38.209Z,2.67
2017-08-07T15:27:05.758Z,2.63
2017-08-07T15:29:33.327Z,2.57
2017-08-07T15:32:00.887Z,2.90
2017-08-07T15:34:28.457Z,3.37
2017-08-07T15:36:56.015Z,3.13
2017-08-07T15:39:23.610Z,3.47
2017-08-07T15:41:51.156Z,3.27
2017-08-07T15:44:19.712Z,3.57
2017-08-07T15:46:47.294Z,2.50
2017-08-07T15:49:14.832Z,3.17
2017-08-07T15:51:42.422Z,2.73
2017-08-07T15:54:09.950Z,3.43
2017-08-07T15:56:38.286Z,3.10
2017-08-07T15:59:05.825Z,3.10
2017-08-07T16:01:33.368Z,2.83
2017-08-07T16:04:01.691Z,2.67
2017-08-07T16:06:29.229Z,3.13
2017-08-07T16:08:56.800Z,2.83
2017-08-07T16:11:24.354Z,3.37
2017-08-07T16:13:51.914Z,3.17
2017-08-07T16:16:19.438Z,4.20
2017-08-07T16:18:47.043Z,3.23
2017-08-07T16:21:14.648Z,4.47
2017-08-07T16:23:42.173Z,2.90
2017-08-07T16:26:10.500Z,3.00
2017-08-07T16:28:38.037Z,3.07
2017-08-07T16:31:05.607Z,3.00
2017-08-07T16:33:33.162Z,3.80
2017-08-07T16:36:00.729Z,3.27
2017-08-07T16:38:29.458Z,3.17
2017-08-07T16:40:57.066Z,3.70
2017-08-07T16:43:25.410Z,4.60
2017-08-07T16:45:52.970Z,3.23
2017-08-07T16:48:20.509Z,3.90
2017-08-07T16:50:48.061Z,3.30
2017-08-07T16:53:15.630Z,2.87
2017-08-07T16:55:43.174Z,5.63
2017-08-07T16:58:14.489Z,3.50
2017-08-07T17:00:45.532Z,3.00
2017-08-07T17:03:14.706Z,2.93
2017-08-07T17:05:42.234Z,3.00
2017-08-07T17:08:09.998Z,3.13
2017-08-07T17:10:38.326Z,3.13
2017-08-07T17:13:05.896Z,3.20
2017-08-07T17:15:33.640Z,3.03
2017-08-07T17:18:02.147Z,4.57
2017-08-07T17:20:29.695Z,3.53
2017-08-07T17:22:57.243Z,4.03
2017-08-07T17:25:24.814Z,2.47
2017-08-07T17:27:52.483Z,3.60
2017-08-07T17:30:20.047Z,3.37
2017-08-07T17:32:47.587Z,3.50
2017-08-07T17:35:15.937Z,6.17
2017-08-07T17:37:43.482Z,3.63
2017-08-07T17:40:11.057Z,2.90
2017-08-07T17:42:38.609Z,3.53
2017-08-07T17:45:06.168Z,2.90
2017-08-07T17:47:33.705Z,55.80
2017-08-07T17:50:02.053Z,20.90
2017-08-07T17:52:29.589Z,7.30
2017-08-07T17:54:57.457Z,36.47
2017-08-07T17:57:25.029Z,13.50
2017-08-07T17:59:52.594Z,6.90
2017-08-07T18:02:20.178Z,4.43
2017-08-07T18:04:47.749Z,3.77
2017-08-07T18:07:15.313Z,3.77
2017-08-07T18:09:43.063Z,2.67
2017-08-07T18:12:10.781Z,3.40
2017-08-07T18:14:38.331Z,2.90
2017-08-07T18:17:05.914Z,3.43
2017-08-07T18:19:34.207Z,6.57
2017-08-07T18:22:01.835Z,4.10
2017-08-07T18:24:29.384Z,3.37
2017-08-07T18:26:56.969Z,3.00
2017-08-07T18:29:25.289Z,3.60
2017-08-07T18:31:52.836Z,3.20
2017-08-07T18:34:21.550Z,34.17
2017-08-07T18:36:49.095Z,3.67
2017-08-07T18:39:16.646Z,3.47
2017-08-07T18:41:44.174Z,2.73
2017-08-07T18:44:11.753Z,6.33
2017-08-07T18:46:39.313Z,3.80
2017-08-07T18:49:06.867Z,4.00
2017-08-07T18:51:35.122Z,4.93
2017-08-07T18:54:02.748Z,6.23
2017-08-07T18:56:31.074Z,6.73
2017-08-07T18:59:00.710Z,4.67
2017-08-07T19:01:28.341Z,4.90
2017-08-07T19:03:55.881Z,4.13
2017-08-07T19:06:24.361Z,3.67
2017-08-07T19:08:51.910Z,3.33
2017-08-07T19:11:19.480Z,5.93
2017-08-07T19:13:47.057Z,5.57
2017-08-07T19:16:14.592Z,3.77
2017-08-07T19:18:42.124Z,4.07
2017-08-07T19:21:10.111Z,3.17
2017-08-07T19:23:37.687Z,3.00
2017-08-07T19:26:07.902Z,2.97
2017-08-07T19:28:35.972Z,3.67
2017-08-07T19:31:03.661Z,3.23
2017-08-07T19:33:31.202Z,3.43
2017-08-07T19:35:58.977Z,3.97
2017-08-07T19:38:27.533Z,4.33
2017-08-07T19:40:55.615Z,3.33
2017-08-07T19:43:23.185Z,2.93
2017-08-07T19:45:50.770Z,3.17
2017-08-07T19:48:19.585Z,4.20
2017-08-07T19:50:48.907Z,3.47
2017-08-07T19:53:18.692Z,4.63
2017-08-07T19:55:46.273Z,4.03
2017-08-07T19:58:14.674Z,2.93
2017-08-07T20:00:43.290Z,3.37
2017-08-07T20:03:11.032Z,3.23
2017-08-07T20:05:38.615Z,3.10
2017-08-07T20:08:07.046Z,3.47
2017-08-07T20:10:34.764Z,3.17
2017-08-07T20:13:02.938Z,3.33
2017-08-07T20:15:31.993Z,4.10
2017-08-07T20:17:59.934Z,5.60
2017-08-07T20:20:33.340Z,4.10
2017-08-07T20:23:00.880Z,3.90
2017-08-07T20:25:29.290Z,4.40
2017-08-07T20:27:58.262Z,5.20
2017-08-07T20:30:25.859Z,5.20
2017-08-07T20:32:56.256Z,3.70
2017-08-07T20:35:25.590Z,6.23
2017-08-07T20:37:53.193Z,4.53
2017-08-07T20:40:20.877Z,3.53
2017-08-07T20:42:49.030Z,4.20
2017-08-07T20:45:16.629Z,9.60
2017-08-07T20:47:44.205Z,6.50
2017-08-07T20:50:12.514Z,4.50
2017-08-07T20:52:44.447Z,3.80
2017-08-07T20:55:13.021Z,5.53
2017-08-07T20:57:41.372Z,4.03
2017-08-07T21:00:08.926Z,4.90
2017-08-07T21:02:36.460Z,3.70
2017-08-07T21:05:05.267Z,2.93
2017-08-07T21:07:33.347Z,4.00
2017-08-07T21:10:01.383Z,3.43
2017-08-07T21:12:28.919Z,4.30
2017-08-07T21:14:57.255Z,3.93
2017-08-07T21:17:27.538Z,3.53
2017-08-07T21:19:55.413Z,4.13
2017-08-07T21:22:22.958Z,3.70
2017-08-07T21:24:50.547Z,5.73
2017-08-07T21:27:19.430Z,4.37
2017-08-07T21:29:46.992Z,4.97
2017-08-07T21:32:15.361Z,5.20
2017-08-07T21:34:42.941Z,4.23
2017-08-07T21:37:13.412Z,3.63
2017-08-07T21:39:42.679Z,6.93
2017-08-07T21:42:10.235Z,3.87
2017-08-07T21:44:37.785Z,5.13
2017-08-07T21:47:06.221Z,5.00
2017-08-07T21:49:33.768Z,4.68
2017-08-07T21:52:01.344Z,7.03
2017-08-07T21:54:28.885Z,4.40
2017-08-07T21:56:59.728Z,5.03
2017-08-07T21:59:28.140Z,6.80
2017-08-07T22:01:58.762Z,3.70
2017-08-07T22:04:26.319Z,6.05
2017-08-07T22:06:53.910Z,4.03
2017-08-07T22:09:22.094Z,4.40
2017-08-07T22:11:50.896Z,4.03
2017-08-07T22:14:18.438Z,4.05
2017-08-07T22:16:45.972Z,7.10
2017-08-07T22:19:14.318Z,5.85
2017-08-07T22:21:41.854Z,4.57
2017-08-07T22:24:09.451Z,4.53
2017-08-07T22:26:37.373Z,4.50
2017-08-07T22:29:05.496Z,6.28
2017-08-07T22:31:33.874Z,5.55
2017-08-07T22:34:01.436Z,5.05
2017-08-07T22:36:29.036Z,5.43
2017-08-07T22:38:56.769Z,6.00
2017-08-07T22:41:25.899Z,4.90
2017-08-07T22:43:54.025Z,4.22
2017-08-07T22:46:29.566Z,4.50
2017-08-07T22:48:59.062Z,4.22
2017-08-07T22:51:31.208Z,4.28
2017-08-07T22:54:02.945Z,4.05
2017-08-07T22:56:30.669Z,4.57
2017-08-07T22:59:13.342Z,5.97
2017-08-07T23:01:46.964Z,4.43
2017-08-07T23:04:26.472Z,6.25
2017-08-07T23:06:56.858Z,6.87
2017-08-07T23:17:23.234Z,4.82
2017-08-07T23:23:36.202Z,5.12
2017-08-07T23:26:03.793Z,5.50
2017-08-07T23:28:31.480Z,5.35
2017-08-07T23:31:00.531Z,6.82
2017-08-07T23:33:31.382Z,5.15
2017-08-07T23:36:16.152Z,6.20
2017-08-07T23:41:25.438Z,5.50
2017-08-07T23:43:53.199Z,6.07
2017-08-07T23:46:24.619Z,5.30
2017-08-07T23:48:52.205Z,5.85
2017-08-07T23:51:24.017Z,5.87
2017-08-07T23:53:53.633Z,5.53
2017-08-07T23:58:59.053Z,5.70
